Philadelphia International Airport
KPHL : now visible

Airfield :











YOU CAN JOIN US ON...

 
LOGIN :

Register | Disclaimer

   EN    FR    IT 

 









Legend :    VFR   Marginal VFR   IFR   Intensive IFR   Very Intensive IFR
Visi :
Ceiling :
>= 8 km
>= 3000ft
5 to 8 km
1000 to 3000 ft
1500m to 5 km
500 to 1000 ft
800 to 1500m
200 to 500 ft
< 800m
< 200 ft
Symbols :   Thunderstorms  Fog  Heavy snow  Heavy precipitations  Wind > 20 kt






- Airport Elevation : 36 ft
- IATA code : PHL


KPHL - Philadelphia International

CURRENT METAR :
  • 250854Z 05004KT 10SM OVC008 14/12 A3020 RMK AO2 SLP227 60000 T01440122 53003

EXPIRED METARs :
  • 250754Z 05003KT 10SM OVC008 14/12 A3020 RMK AO2 SLP227 T01440122
  • 250709Z 06004KT 10SM BKN008 OVC012 14/12 A3019 RMK AO2 T01440122
  • 250654Z 05007KT 10SM BKN010 OVC018 14/12 A3019 RMK AO2 RAE19 SLP224 P0000 T01440122
  • 250619Z 04005KT 10SM BKN010 OVC018 14/13 A3020 RMK AO2 RAE19 P0000 T01390128

TAF KPHL
Valid from the 25 at 06:00 until the 26 at 12:00 UTC


250537Z 2506/2612 VRB04KT P6SM BKN013
FM250800 06006KT P6SM OVC008
FM251300 06005KT P6SM OVC012
FM251800 VRB03KT P6SM SCT030 OVC040
FM260300 VRB03KT P6SM BKN015
KZDC FIR / North America



MET'MAP, your aeronautical weather chart ! - Copyright ORBIFLY December 2007 - Disclaimer

ORBIFLY MET'MAP TEAM :

Programming & Development : Alexandra Zaïnal
Concept & original design : Baudouin d'Aumeries
Assistance for programming : Marc-Olivier Méhu
Technical & hardware support : Manuel Goepfert

Contact : metmap@orbifly.com




SOURCES & CREDITS :

   NOAA       Earth
Advisory